Time;durP1;ratioP1;P1;durP2;ratioP2;P2;SDS_P1;SDS_P2;PMS_P1;PMS_P2;Temp;Humidity;BMP_temperature;BMP_pressure;BME280_temperature;BME280_humidity;BME280_pressure;Samples;Min_cycle;Max_cycle;Signal;HPM_P1;HPM_P2
2021/10/02 00:44:39;;;;;;;5.13;1.77;;;14.70;92.90;;;;;;5019865;28;20077;-65
2021/10/02 00:47:09;;;;;;;5.90;1.75;;;14.70;92.80;;;;;;5003393;28;20025;-66
2021/10/02 00:49:37;;;;;;;3.58;1.63;;;14.70;92.80;;;;;;5021547;28;20469;-66
2021/10/02 00:52:06;;;;;;;4.00;1.52;;;14.60;93.10;;;;;;5020719;28;20037;-65
2021/10/02 00:54:32;;;;;;;3.72;1.30;;;14.60;93.20;;;;;;5020506;28;20037;-66
2021/10/02 00:56:57;;;;;;;3.35;1.80;;;14.50;93.10;;;;;;5021369;28;20552;-65
2021/10/02 00:59:23;;;;;;;2.50;1.35;;;14.50;93.10;;;;;;5018366;28;20037;-65
2021/10/02 01:01:54;;;;;;;4.50;1.70;;;14.50;93.20;;;;;;5020186;28;20058;-65
2021/10/02 01:04:36;;;;;;;2.90;1.30;;;14.50;93.10;;;;;;5021512;28;20037;-64
2021/10/02 01:07:09;;;;;;;3.97;1.52;;;14.40;93.30;;;;;;5022040;28;20025;-65
2021/10/02 01:10:08;;;;;;;3.47;1.63;;;14.40;93.60;;;;;;5016618;28;20041;-66
2021/10/02 01:13:04;;;;;;;4.72;1.70;;;14.50;93.30;;;;;;5021563;28;20322;-63
2021/10/02 01:15:48;;;;;;;3.75;1.40;;;14.50;92.90;;;;;;5020445;28;20033;-65
2021/10/02 01:18:39;;;;;;;3.28;1.73;;;14.50;93.10;;;;;;5020837;28;20057;-65
2021/10/02 01:21:28;;;;;;;4.53;1.88;;;14.40;93.20;;;;;;4991669;28;20456;-66
2021/10/02 01:24:19;;;;;;;4.38;1.80;;;14.50;93.40;;;;;;5019421;28;20368;-66
2021/10/02 01:27:22;;;;;;;3.67;1.63;;;14.40;93.50;;;;;;5018459;28;20076;-64
2021/10/02 01:29:50;;;;;;;3.80;1.73;;;14.40;93.50;;;;;;5018106;28;20051;-66
2021/10/02 01:32:23;;;;;;;5.35;1.77;;;14.40;93.40;;;;;;5016891;28;20025;-64
2021/10/02 01:35:21;;;;;;;4.40;2.13;;;14.40;93.40;;;;;;5017652;28;20112;-64
2021/10/02 01:48:41;;;;;;;7.38;2.10;;;14.40;93.70;;;;;;5020745;28;20018;-65
2021/10/02 01:51:10;;;;;;;5.50;2.58;;;14.40;94.20;;;;;;5017946;28;20064;-65
2021/10/02 01:53:38;;;;;;;5.97;2.40;;;14.30;94.30;;;;;;5021013;28;20030;-64
2021/10/02 01:56:05;;;;;;;7.20;2.65;;;14.30;94.70;;;;;;5019684;28;20391;-66
2021/10/02 01:58:32;;;;;;;4.82;2.33;;;14.30;94.70;;;;;;5020174;28;20034;-65
2021/10/02 02:00:58;;;;;;;8.30;3.20;;;14.20;95.10;;;;;;5019014;28;20450;-67
2021/10/02 02:03:26;;;;;;;5.28;2.20;;;14.30;95.20;;;;;;5018970;28;20065;-65
2021/10/02 02:05:54;;;;;;;4.72;2.60;;;14.30;95.20;;;;;;5020037;28;20589;-65
2021/10/02 02:08:24;;;;;;;4.55;2.40;;;14.30;95.50;;;;;;5002476;28;20091;-64
2021/10/02 02:10:51;;;;;;;4.38;2.28;;;14.30;95.70;;;;;;5004053;28;20054;-65
2021/10/02 02:13:17;;;;;;;4.95;2.97;;;14.30;95.70;;;;;;5024082;28;20103;-64
2021/10/02 02:15:44;;;;;;;10.05;3.38;;;14.30;96.40;;;;;;5024034;28;20022;-65
2021/10/02 02:18:13;;;;;;;6.55;2.88;;;14.30;96.40;;;;;;5023277;28;20041;-65
2021/10/02 02:20:42;;;;;;;5.18;2.63;;;14.30;96.40;;;;;;5023887;28;20056;-65
2021/10/02 02:23:12;;;;;;;8.85;3.30;;;14.20;96.50;;;;;;4998892;28;20026;-65
2021/10/02 02:25:39;;;;;;;5.67;3.00;;;14.20;96.70;;;;;;5022444;28;20033;-64
2021/10/02 02:28:07;;;;;;;5.95;3.00;;;14.30;96.70;;;;;;5015417;28;20384;-65
2021/10/02 02:30:34;;;;;;;6.97;2.80;;;14.30;96.80;;;;;;5018398;28;20030;-65
2021/10/02 02:33:00;;;;;;;8.68;3.22;;;14.30;97.00;;;;;;5019896;28;20022;-66
2021/10/02 02:35:27;;;;;;;4.60;2.85;;;14.30;97.20;;;;;;5023620;28;20386;-66
2021/10/02 02:37:53;;;;;;;5.00;2.40;;;14.30;97.10;;;;;;5022429;28;20125;-65
2021/10/02 02:40:21;;;;;;;7.75;3.67;;;14.30;97.00;;;;;;5023955;28;20460;-64
2021/10/02 02:42:47;;;;;;;7.70;3.13;;;14.30;97.10;;;;;;5022817;28;20022;-65
2021/10/02 02:45:15;;;;;;;5.22;2.85;;;14.30;97.30;;;;;;5021872;28;20044;-63
2021/10/02 02:47:48;;;;;;;6.03;2.95;;;14.20;97.40;;;;;;5021999;28;20041;-65
2021/10/02 02:50:32;;;;;;;8.05;3.63;;;14.20;97.70;;;;;;5022027;28;20080;-66
2021/10/02 02:53:11;;;;;;;9.02;3.92;;;14.20;97.70;;;;;;5022426;28;20029;-66
2021/10/02 02:55:46;;;;;;;5.97;3.30;;;14.20;97.40;;;;;;5020577;28;20080;-67
2021/10/02 02:58:13;;;;;;;6.30;3.60;;;14.10;97.40;;;;;;5022283;28;20041;-65
2021/10/02 03:00:53;;;;;;;8.13;4.00;;;14.20;97.30;;;;;;5020336;28;20033;-65
2021/10/02 03:03:23;;;;;;;7.30;4.05;;;14.20;97.30;;;;;;5023377;28;20051;-68
2021/10/02 03:05:50;;;;;;;7.75;4.30;;;14.20;97.50;;;;;;5023821;28;20257;-65
2021/10/02 03:08:17;;;;;;;10.65;4.75;;;14.20;97.30;;;;;;5020738;28;20453;-65
2021/10/02 03:10:47;;;;;;;7.43;4.25;;;14.20;97.30;;;;;;5023624;28;20585;-65
2021/10/02 03:13:17;;;;;;;6.78;4.13;;;14.20;97.30;;;;;;5020723;28;20026;-66
2021/10/02 03:15:46;;;;;;;6.95;3.95;;;14.20;97.40;;;;;;5023221;28;20034;-66
2021/10/02 03:18:13;;;;;;;7.40;4.78;;;14.20;97.40;;;;;;5021545;28;20029;-65
2021/10/02 03:20:40;;;;;;;9.48;4.45;;;14.20;97.50;;;;;;5021451;28;20029;-66
2021/10/02 03:23:07;;;;;;;10.02;4.78;;;14.10;97.60;;;;;;5019289;28;20026;-65
2021/10/02 03:25:33;;;;;;;10.73;4.28;;;14.10;97.40;;;;;;5022198;28;20025;-66
2021/10/02 03:28:01;;;;;;;8.10;4.45;;;14.10;97.50;;;;;;5021669;28;20060;-65
2021/10/02 03:30:29;;;;;;;6.25;3.88;;;14.20;97.60;;;;;;5021302;28;20083;-66
2021/10/02 03:32:55;;;;;;;9.75;4.68;;;14.20;97.50;;;;;;5021605;28;20041;-65
2021/10/02 03:35:22;;;;;;;11.05;5.20;;;14.20;97.40;;;;;;5022905;28;20029;-65
2021/10/02 03:37:49;;;;;;;12.63;4.78;;;14.20;97.40;;;;;;5020645;28;20022;-66
2021/10/02 03:40:17;;;;;;;6.97;3.80;;;14.20;97.40;;;;;;5024748;28;20100;-65
2021/10/02 03:42:44;;;;;;;10.60;5.60;;;14.20;97.40;;;;;;5021410;28;20491;-64
2021/10/02 03:45:11;;;;;;;8.68;4.85;;;14.20;97.70;;;;;;5021215;28;20082;-64
2021/10/02 03:47:37;;;;;;;11.15;5.00;;;14.20;97.60;;;;;;5023132;28;20055;-64
2021/10/02 03:50:04;;;;;;;7.20;4.80;;;14.20;97.70;;;;;;5020056;28;20491;-67
2021/10/02 03:52:30;;;;;;;11.10;4.88;;;14.20;97.70;;;;;;5022159;28;20033;-65
2021/10/02 03:54:56;;;;;;;11.18;4.97;;;14.20;97.50;;;;;;5021899;28;20507;-65
2021/10/02 03:57:22;;;;;;;11.65;4.72;;;14.20;97.50;;;;;;5019567;28;20232;-66
2021/10/02 03:59:47;;;;;;;8.10;4.85;;;14.30;97.50;;;;;;5021277;28;20479;-65
2021/10/02 04:02:13;;;;;;;11.13;4.45;;;14.30;97.60;;;;;;5019629;28;20043;-65
2021/10/02 04:04:39;;;;;;;11.30;5.57;;;14.20;97.50;;;;;;5002895;28;20040;-65
2021/10/02 04:07:04;;;;;;;8.27;5.15;;;14.20;97.70;;;;;;5019961;28;20045;-65
2021/10/02 04:09:30;;;;;;;9.57;5.63;;;14.20;97.50;;;;;;5021419;28;20112;-64
2021/10/02 04:11:56;;;;;;;7.10;4.53;;;14.20;97.60;;;;;;5021000;28;20792;-64
2021/10/02 04:14:21;;;;;;;9.45;5.65;;;14.20;97.70;;;;;;5020060;28;20517;-64
2021/10/02 04:16:47;;;;;;;10.70;5.20;;;14.20;97.70;;;;;;5021708;28;20518;-66
2021/10/02 04:19:13;;;;;;;8.30;5.10;;;14.20;97.50;;;;;;5021160;28;20109;-65
2021/10/02 04:21:39;;;;;;;11.02;5.00;;;14.20;97.70;;;;;;5022062;28;20038;-65
2021/10/02 04:24:04;;;;;;;8.32;5.13;;;14.20;97.50;;;;;;5022197;28;20446;-62
2021/10/02 04:26:31;;;;;;;7.18;4.13;;;14.30;97.50;;;;;;5021649;28;20033;-64
2021/10/02 04:28:57;;;;;;;8.45;4.78;;;14.20;97.40;;;;;;5020349;28;20121;-65
2021/10/02 04:31:23;;;;;;;9.10;4.60;;;14.30;97.40;;;;;;5020033;28;20084;-64
2021/10/02 04:33:48;;;;;;;10.18;4.85;;;14.20;97.40;;;;;;5019525;28;20043;-62
2021/10/02 04:36:14;;;;;;;6.00;3.88;;;14.20;97.50;;;;;;5019881;28;20054;-65
2021/10/02 04:38:42;;;;;;;8.27;5.43;;;14.20;97.50;;;;;;5022139;28;20076;-65
2021/10/02 04:41:09;;;;;;;10.18;5.70;;;14.20;97.50;;;;;;5012911;28;20054;-65
2021/10/02 04:43:41;;;;;;;13.10;5.70;;;14.20;97.60;;;;;;5015470;28;20503;-64
2021/10/02 04:46:09;;;;;;;11.73;6.28;;;14.30;97.50;;;;;;5010780;28;20673;-64
2021/10/02 04:48:34;;;;;;;10.98;5.70;;;14.30;97.50;;;;;;5008455;28;20139;-66
2021/10/02 04:51:00;;;;;;;8.98;5.40;;;14.20;97.60;;;;;;5019722;28;20484;-66
2021/10/02 04:53:26;;;;;;;11.02;5.53;;;14.20;97.70;;;;;;5018113;28;20128;-65
2021/10/02 04:55:55;;;;;;;8.05;4.80;;;14.20;97.80;;;;;;5022608;28;20102;-64
2021/10/02 04:58:21;;;;;;;7.63;5.68;;;14.20;97.70;;;;;;4996122;28;20089;-65
2021/10/02 05:00:47;;;;;;;9.77;5.80;;;14.20;97.80;;;;;;5002736;28;20037;-65
2021/10/02 05:03:13;;;;;;;9.18;5.72;;;14.20;97.80;;;;;;5013963;28;20025;-65
2021/10/02 05:05:39;;;;;;;11.00;5.53;;;14.20;97.80;;;;;;5023312;28;20112;-65
2021/10/02 05:08:04;;;;;;;9.05;5.30;;;14.20;97.90;;;;;;5018067;28;20132;-67
2021/10/02 05:10:30;;;;;;;16.35;6.85;;;14.10;98.00;;;;;;5023799;28;20034;-65
2021/10/02 05:12:56;;;;;;;10.57;5.70;;;14.20;98.20;;;;;;5022121;28;20060;-66
2021/10/02 05:15:21;;;;;;;14.00;5.95;;;14.10;98.20;;;;;;5019529;28;20438;-65
2021/10/02 05:17:47;;;;;;;9.70;4.95;;;14.20;98.30;;;;;;5018966;28;20091;-66
2021/10/02 05:20:12;;;;;;;9.30;5.60;;;14.10;98.40;;;;;;5022607;28;20037;-66
2021/10/02 05:22:38;;;;;;;12.10;5.80;;;14.10;98.60;;;;;;5021876;28;20025;-66
2021/10/02 05:25:04;;;;;;;12.20;5.80;;;14.10;98.60;;;;;;5021052;28;20503;-66
2021/10/02 05:27:30;;;;;;;13.68;5.75;;;14.10;98.80;;;;;;5019340;28;20048;-62
2021/10/02 05:29:56;;;;;;;10.93;6.28;;;14.00;99.00;;;;;;5020763;28;20033;-64
2021/10/02 05:32:22;;;;;;;11.48;6.15;;;14.00;99.10;;;;;;5020329;28;20481;-66
2021/10/02 05:34:47;;;;;;;9.60;5.63;;;14.00;99.20;;;;;;5020196;28;20495;-67
2021/10/02 05:37:13;;;;;;;14.27;6.88;;;13.90;99.20;;;;;;5020105;28;20475;-64
2021/10/02 05:39:38;;;;;;;12.18;6.78;;;14.00;99.30;;;;;;5023409;28;20487;-65
2021/10/02 05:42:04;;;;;;;13.13;6.97;;;14.00;99.40;;;;;;5006269;28;20040;-65
2021/10/02 05:44:32;;;;;;;14.00;7.70;;;14.00;99.30;;;;;;5019267;28;20029;-65
2021/10/02 05:46:58;;;;;;;13.57;6.88;;;14.00;99.40;;;;;;5021537;28;20487;-65
2021/10/02 05:49:24;;;;;;;11.50;6.68;;;14.00;99.40;;;;;;5017305;28;20033;-65
2021/10/02 05:51:50;;;;;;;12.75;7.00;;;14.00;99.60;;;;;;5022303;28;20033;-65
2021/10/02 05:54:16;;;;;;;14.70;7.18;;;14.00;99.50;;;;;;5023795;28;20037;-64
2021/10/02 05:56:41;;;;;;;12.82;7.60;;;14.10;99.50;;;;;;5024577;28;20460;-64
2021/10/02 05:59:07;;;;;;;12.25;6.88;;;14.20;99.20;;;;;;5007204;28;20073;-65
2021/10/02 06:01:33;;;;;;;15.45;7.22;;;14.10;99.30;;;;;;5020681;28;20049;-65
2021/10/02 06:03:59;;;;;;;11.50;6.70;;;14.10;99.40;;;;;;5025892;28;20091;-65
2021/10/02 06:06:24;;;;;;;13.32;7.28;;;14.10;99.40;;;;;;5026563;28;20032;-65
2021/10/02 06:08:50;;;;;;;14.65;7.13;;;14.10;99.60;;;;;;5025009;28;20030;-65
2021/10/02 06:11:16;;;;;;;13.13;6.90;;;14.00;99.70;;;;;;5024625;28;20044;-65
2021/10/02 06:13:42;;;;;;;14.93;6.75;;;14.00;99.60;;;;;;5026701;28;20374;-65
2021/10/02 06:16:08;;;;;;;15.65;8.27;;;14.00;99.60;;;;;;5024233;28;20032;-65
2021/10/02 06:18:33;;;;;;;13.23;6.47;;;14.00;99.80;;;;;;5024666;28;20029;-65
2021/10/02 06:20:59;;;;;;;19.30;8.30;;;14.00;99.60;;;;;;5027916;28;20505;-66
2021/10/02 06:23:32;;;;;;;13.88;7.22;;;14.00;99.90;;;;;;5025190;28;20030;-63
2021/10/02 06:25:57;;;;;;;14.68;8.02;;;14.10;99.70;;;;;;4989072;28;20156;-66
2021/10/02 06:28:23;;;;;;;15.65;7.57;;;14.10;99.70;;;;;;4991357;28;20658;-67
2021/10/02 06:30:49;;;;;;;15.82;8.63;;;14.10;99.70;;;;;;4993794;28;20037;-66
2021/10/02 06:33:15;;;;;;;15.32;8.02;;;14.10;99.70;;;;;;4988713;28;20042;-66
2021/10/02 06:35:40;;;;;;;14.32;7.35;;;14.10;99.80;;;;;;4990610;28;20042;-66
2021/10/02 06:38:06;;;;;;;14.90;7.22;;;14.10;99.90;;;;;;4991699;28;20492;-66
2021/10/02 06:40:32;;;;;;;13.90;6.78;;;14.10;99.90;;;;;;4989341;28;20034;-66
2021/10/02 06:42:57;;;;;;;18.95;7.75;;;14.00;99.90;;;;;;4990349;28;20063;-66
2021/10/02 06:45:23;;;;;;;16.77;8.30;;;14.00;99.90;;;;;;4990186;28;20026;-67
2021/10/02 06:47:49;;;;;;;18.10;7.75;;;14.10;99.90;;;;;;4991499;28;20155;-66
2021/10/02 06:50:15;;;;;;;14.82;7.30;;;14.10;99.90;;;;;;4983126;28;20046;-66
2021/10/02 06:52:41;;;;;;;16.95;7.97;;;14.10;99.90;;;;;;4981767;28;20039;-67
2021/10/02 06:55:07;;;;;;;17.55;7.45;;;14.10;99.90;;;;;;4986481;28;20039;-67
2021/10/02 06:57:34;;;;;;;16.73;7.35;;;14.10;99.90;;;;;;4982308;28;20035;-67
2021/10/02 07:00:01;;;;;;;18.05;7.75;;;14.10;99.90;;;;;;4984514;28;20129;-67
2021/10/02 07:02:26;;;;;;;12.07;7.22;;;14.10;99.90;;;;;;4980718;28;20043;-67
2021/10/02 07:04:52;;;;;;;12.63;7.05;;;14.10;99.90;;;;;;4984042;28;20681;-67
2021/10/02 07:07:19;;;;;;;15.73;7.25;;;14.10;99.90;;;;;;4985413;28;20415;-67
2021/10/02 07:09:46;;;;;;;10.90;7.07;;;14.10;99.90;;;;;;4981858;28;20038;-67
2021/10/02 07:12:12;;;;;;;14.70;7.72;;;14.10;99.90;;;;;;4984671;28;20445;-67
2021/10/02 07:14:38;;;;;;;13.63;7.25;;;14.20;99.90;;;;;;4981089;28;20060;-67
2021/10/02 07:17:04;;;;;;;12.48;7.65;;;14.20;99.90;;;;;;4988459;28;20037;-66
2021/10/02 07:19:29;;;;;;;15.07;7.95;;;14.30;99.90;;;;;;4988967;28;20023;-67
2021/10/02 07:21:55;;;;;;;14.23;7.90;;;14.20;99.90;;;;;;4991456;28;20101;-67
2021/10/02 07:24:21;;;;;;;13.50;8.30;;;14.20;99.90;;;;;;4989375;28;20034;-67
2021/10/02 07:26:47;;;;;;;12.98;7.40;;;14.20;99.90;;;;;;4972894;28;20424;-66
2021/10/02 07:29:13;;;;;;;14.30;8.40;;;14.10;99.90;;;;;;4989315;28;20034;-66
2021/10/02 07:31:39;;;;;;;13.13;7.97;;;14.20;99.90;;;;;;4974350;28;20093;-67
2021/10/02 07:34:05;;;;;;;13.80;7.80;;;14.20;99.90;;;;;;4987461;28;20451;-66
2021/10/02 07:36:31;;;;;;;12.82;7.68;;;14.20;99.90;;;;;;4990103;28;20037;-67
2021/10/02 07:38:57;;;;;;;15.60;8.45;;;14.10;99.90;;;;;;4987488;28;20034;-65
2021/10/02 07:41:25;;;;;;;14.45;7.57;;;14.20;99.90;;;;;;4989385;28;20119;-68
2021/10/02 07:43:59;;;;;;;13.05;8.50;;;14.20;99.90;;;;;;4992815;28;20038;-67
2021/10/02 07:46:27;;;;;;;13.98;7.82;;;14.30;99.90;;;;;;4988419;28;20066;-67
2021/10/02 07:48:53;;;;;;;14.15;9.13;;;14.30;99.90;;;;;;4987554;28;20423;-67
2021/10/02 07:51:23;;;;;;;14.48;8.77;;;14.40;99.90;;;;;;4988805;28;20529;-67
2021/10/02 07:53:51;;;;;;;15.02;8.88;;;14.30;99.90;;;;;;4988635;28;20042;-66
2021/10/02 07:56:18;;;;;;;17.27;8.63;;;14.40;99.90;;;;;;4988673;28;20034;-67
2021/10/02 07:58:49;;;;;;;14.52;9.23;;;14.40;99.90;;;;;;4986366;28;20109;-66
2021/10/02 08:01:18;;;;;;;14.90;8.68;;;14.40;99.90;;;;;;4985910;28;20145;-68
2021/10/02 08:03:44;;;;;;;16.10;9.50;;;14.50;99.90;;;;;;4989275;28;20452;-67
2021/10/02 08:06:10;;;;;;;17.90;9.48;;;14.50;99.90;;;;;;4988772;28;20515;-67
2021/10/02 08:08:36;;;;;;;14.60;9.07;;;14.50;99.90;;;;;;4987322;28;20101;-67
2021/10/02 08:11:05;;;;;;;14.07;8.98;;;14.50;99.90;;;;;;4988334;28;20109;-66
2021/10/02 08:13:30;;;;;;;15.73;9.10;;;14.50;99.90;;;;;;4987138;28;20089;-67
2021/10/02 08:15:58;;;;;;;13.45;9.10;;;14.50;99.90;;;;;;4988751;28;20026;-67
2021/10/02 08:18:27;;;;;;;11.02;7.70;;;14.60;99.90;;;;;;4981700;28;20384;-67
2021/10/02 08:20:54;;;;;;;14.43;8.40;;;14.60;99.90;;;;;;4979597;28;20061;-67
2021/10/02 08:23:24;;;;;;;16.05;9.32;;;14.60;99.90;;;;;;4983156;28;20021;-67
2021/10/02 08:25:53;;;;;;;13.18;8.57;;;14.70;99.90;;;;;;4985152;28;20109;-67
2021/10/02 08:28:19;;;;;;;14.27;8.30;;;14.80;99.90;;;;;;4987557;28;20039;-67
2021/10/02 08:30:46;;;;;;;13.70;8.95;;;14.90;99.50;;;;;;4987649;28;20104;-67
2021/10/02 08:33:13;;;;;;;10.13;6.72;;;14.80;99.60;;;;;;4983053;28;20045;-67
2021/10/02 08:35:40;;;;;;;11.85;7.35;;;14.80;99.50;;;;;;4985409;28;20113;-67
2021/10/02 08:38:07;;;;;;;11.55;6.90;;;14.80;99.60;;;;;;4985166;28;20049;-67
2021/10/02 08:40:34;;;;;;;11.30;7.20;;;14.80;99.70;;;;;;4986324;28;20033;-67
2021/10/02 08:43:00;;;;;;;13.68;6.93;;;14.70;99.80;;;;;;4983079;28;20041;-64
2021/10/02 08:45:30;;;;;;;16.67;8.40;;;14.70;99.80;;;;;;4983570;28;20109;-67
2021/10/02 08:47:58;;;;;;;13.15;6.68;;;14.80;99.60;;;;;;4982057;28;20604;-67
2021/10/02 08:50:26;;;;;;;9.57;6.57;;;14.80;99.60;;;;;;4984060;28;20350;-67
2021/10/02 08:52:54;;;;;;;10.25;6.90;;;14.80;99.70;;;;;;4983770;28;20041;-67
2021/10/02 08:55:21;;;;;;;7.78;6.20;;;14.80;99.60;;;;;;4984829;28;20034;-67
2021/10/02 08:57:48;;;;;;;11.13;7.35;;;14.90;99.40;;;;;;4985280;28;20038;-67
2021/10/02 09:00:18;;;;;;;9.18;6.32;;;14.90;99.50;;;;;;4983624;28;20030;-67
2021/10/02 09:02:45;;;;;;;9.88;6.40;;;15.00;99.10;;;;;;4980253;28;20164;-67
2021/10/02 09:05:12;;;;;;;11.10;6.32;;;15.10;99.10;;;;;;4980049;28;20052;-67
2021/10/02 09:07:41;;;;;;;7.65;5.28;;;15.20;98.60;;;;;;4984572;28;20117;-68
2021/10/02 09:10:11;;;;;;;7.85;5.10;;;15.20;98.50;;;;;;4981067;28;20125;-68
2021/10/02 09:12:40;;;;;;;9.20;5.35;;;15.20;98.60;;;;;;4977487;28;20715;-68
2021/10/02 09:15:07;;;;;;;9.57;5.53;;;15.30;98.70;;;;;;4981539;28;20035;-68
2021/10/02 09:17:33;;;;;;;9.25;4.65;;;15.30;98.60;;;;;;4983330;28;20053;-68
2021/10/02 09:20:00;;;;;;;9.77;4.93;;;15.40;98.60;;;;;;4982070;28;20046;-68
2021/10/02 09:22:25;;;;;;;10.20;5.53;;;15.40;98.50;;;;;;4982999;28;20492;-68
2021/10/02 09:24:53;;;;;;;10.48;5.70;;;15.40;98.40;;;;;;4979671;28;20060;-67
2021/10/02 09:27:25;;;;;;;8.65;5.60;;;15.40;98.30;;;;;;4979524;28;20505;-67
2021/10/02 09:29:58;;;;;;;10.20;5.40;;;15.50;98.30;;;;;;4983522;28;20076;-67
2021/10/02 09:32:29;;;;;;;6.75;5.10;;;15.50;98.00;;;;;;4986544;28;20038;-68
2021/10/02 09:34:56;;;;;;;;;;;15.50;98.00;;;;;;4986635;28;20061;-67
2021/10/02 09:37:33;;;;;;;8.73;6.05;;;15.50;98.20;;;;;;4985640;28;19917;-68
2021/10/02 09:40:10;;;;;;;10.15;6.72;;;15.80;97.80;;;;;;4986228;28;20461;-67
2021/10/02 09:42:40;;;;;;;11.73;6.07;;;15.80;97.30;;;;;;4984972;28;20480;-68
2021/10/02 09:45:14;;;;;;;8.88;6.15;;;15.90;97.30;;;;;;4981447;28;20042;-68
2021/10/02 09:47:42;;;;;;;12.75;6.63;;;16.00;97.10;;;;;;4985447;28;20117;-68
2021/10/02 09:50:13;;;;;;;12.35;7.93;;;16.10;96.40;;;;;;4983682;28;20030;-67
2021/10/02 09:52:46;;;;;;;8.70;4.82;;;16.10;96.70;;;;;;4984821;28;20026;-68
2021/10/02 09:55:29;;;;;;;10.10;5.25;;;16.10;96.60;;;;;;4985864;28;20516;-67
2021/10/02 09:58:01;;;;;;;8.95;5.50;;;16.00;96.90;;;;;;4981589;28;20031;-67
2021/10/02 10:00:30;;;;;;;9.00;4.88;;;16.10;96.60;;;;;;4967755;28;20365;-67
2021/10/02 10:02:58;;;;;;;7.55;5.50;;;16.20;96.50;;;;;;4981884;28;20026;-67
2021/10/02 10:05:31;;;;;;;9.88;4.50;;;16.30;96.00;;;;;;4979876;28;20030;-68
2021/10/02 10:07:59;;;;;;;7.95;5.43;;;16.40;95.60;;;;;;4979530;28;20093;-67
2021/10/02 10:10:27;;;;;;;7.35;4.55;;;16.40;95.00;;;;;;4976813;28;20042;-67
2021/10/02 10:12:53;;;;;;;5.82;4.43;;;16.40;95.40;;;;;;4985130;28;20602;-65
2021/10/02 10:15:30;;;;;;;7.55;5.20;;;16.50;95.60;;;;;;4982363;28;20119;-66
2021/10/02 10:17:57;;;;;;;8.88;5.20;;;16.50;95.40;;;;;;4962903;28;20067;-67
2021/10/02 10:20:37;;;;;;;9.18;4.65;;;16.50;95.10;;;;;;4977742;28;20547;-66
2021/10/02 10:23:04;;;;;;;4.85;3.72;;;16.40;95.40;;;;;;4979134;28;20034;-67
2021/10/02 10:25:31;;;;;;;7.40;4.28;;;16.50;95.60;;;;;;4964189;28;20444;-67
2021/10/02 10:28:04;;;;;;;9.82;4.93;;;16.50;95.60;;;;;;4983617;28;20090;-68
2021/10/02 10:30:30;;;;;;;12.05;5.30;;;16.60;95.20;;;;;;4980930;28;20037;-67
2021/10/02 10:33:10;;;;;;;5.45;4.18;;;16.70;95.00;;;;;;4982776;28;20042;-67
2021/10/02 10:35:40;;;;;;;8.27;3.90;;;16.70;95.00;;;;;;4983516;28;20053;-67
2021/10/02 10:38:08;;;;;;;8.52;3.72;;;16.80;94.90;;;;;;4984641;28;20034;-68
2021/10/02 10:40:35;;;;;;;8.63;3.45;;;16.70;95.10;;;;;;4986325;28;20400;-67
2021/10/02 10:43:00;;;;;;;5.28;3.28;;;16.60;95.10;;;;;;4981999;28;20027;-68
2021/10/02 10:45:27;;;;;;;7.32;3.10;;;16.50;95.20;;;;;;4992811;28;20494;-67
2021/10/02 10:47:56;;;;;;;6.82;3.55;;;16.60;94.90;;;;;;4993963;28;20038;-66
2021/10/02 10:50:23;;;;;;;5.35;2.95;;;16.50;94.60;;;;;;4979102;28;20535;-66
2021/10/02 10:52:49;;;;;;;5.63;3.22;;;16.50;94.90;;;;;;4965591;28;20044;-67
2021/10/02 10:55:18;;;;;;;5.47;2.92;;;16.50;95.10;;;;;;4983582;28;20042;-67
2021/10/02 10:57:50;;;;;;;6.10;3.30;;;16.50;95.30;;;;;;4987312;28;20105;-67
2021/10/02 11:00:41;;;;;;;5.07;3.65;;;16.50;95.30;;;;;;4978431;28;20078;-68
2021/10/02 11:03:08;;;;;;;6.00;2.95;;;16.60;95.10;;;;;;4980874;28;20037;-67
2021/10/02 11:05:36;;;;;;;7.40;3.60;;;16.70;94.70;;;;;;4974111;28;20022;-67
2021/10/02 11:08:03;;;;;;;11.73;3.55;;;16.70;94.50;;;;;;4988393;28;20601;-68
2021/10/02 11:10:47;;;;;;;5.13;2.80;;;16.70;94.60;;;;;;4988972;28;20031;-67
2021/10/02 11:13:14;;;;;;;7.10;2.90;;;16.70;94.50;;;;;;4989700;28;20042;-67
2021/10/02 11:15:42;;;;;;;4.38;2.80;;;16.70;94.70;;;;;;4992176;28;20038;-67
2021/10/02 11:18:39;;;;;;;6.68;2.75;;;16.80;94.60;;;;;;4984741;28;20500;-67
2021/10/02 11:21:05;;;;;;;6.50;3.28;;;17.00;94.30;;;;;;4991792;28;20552;-67
2021/10/02 11:23:40;;;;;;;4.65;2.65;;;17.00;93.40;;;;;;4989675;28;20105;-67
2021/10/02 11:26:14;;;;;;;7.30;3.10;;;17.10;93.70;;;;;;4992786;28;20049;-68
2021/10/02 11:28:40;;;;;;;4.57;2.67;;;17.00;93.60;;;;;;4993246;28;20143;-67
2021/10/02 11:31:19;;;;;;;7.32;3.35;;;17.00;93.50;;;;;;4990117;28;20450;-67
2021/10/02 11:33:47;;;;;;;5.30;2.95;;;17.00;93.30;;;;;;4987719;28;20449;-66
2021/10/02 11:36:31;;;;;;;8.30;3.15;;;16.90;93.50;;;;;;4989857;28;20061;-67
2021/10/02 11:39:12;;;;;;;5.47;2.88;;;16.80;93.30;;;;;;4987582;28;20466;-68
2021/10/02 11:41:41;;;;;;;5.10;2.95;;;16.80;93.30;;;;;;4989175;28;20023;-71
2021/10/02 11:44:07;;;;;;;7.03;2.88;;;16.80;93.70;;;;;;4987362;28;20511;-72
2021/10/02 11:46:33;;;;;;;7.80;3.28;;;16.80;93.50;;;;;;4998940;28;20033;-73
2021/10/02 11:49:20;;;;;;;5.53;3.42;;;16.80;93.50;;;;;;4993468;28;20455;-72
2021/10/02 11:52:10;;;;;;;7.47;4.00;;;16.90;93.00;;;;;;4987567;28;20488;-71
2021/10/02 11:54:37;;;;;;;9.45;3.72;;;16.90;92.70;;;;;;4965004;28;20493;-72
2021/10/02 11:57:13;;;;;;;9.70;3.50;;;17.00;92.60;;;;;;4996175;28;20388;-72
2021/10/02 11:59:46;;;;;;;5.20;3.67;;;17.10;92.50;;;;;;4994089;28;20109;-72
2021/10/02 12:02:14;;;;;;;4.38;2.88;;;17.20;92.40;;;;;;4989584;28;20033;-71
2021/10/02 12:04:40;;;;;;;5.90;3.65;;;17.30;92.60;;;;;;4993577;28;20368;-71
2021/10/02 12:07:07;;;;;;;6.38;3.33;;;17.30;92.60;;;;;;4996268;28;20495;-72
2021/10/02 12:09:33;;;;;;;4.43;2.88;;;17.30;92.80;;;;;;4992776;28;20030;-72
2021/10/02 12:11:59;;;;;;;9.88;3.50;;;17.30;93.00;;;;;;4992707;28;20022;-72
2021/10/02 12:14:27;;;;;;;4.40;2.97;;;17.40;92.50;;;;;;4989528;28;20034;-71
2021/10/02 12:17:00;;;;;;;9.40;4.35;;;17.40;92.60;;;;;;4992237;28;20033;-71
2021/10/02 12:19:26;;;;;;;7.22;3.35;;;17.40;92.20;;;;;;4992212;28;20023;-71
2021/10/02 12:22:10;;;;;;;4.88;3.53;;;17.40;92.70;;;;;;4991325;28;20127;-72
2021/10/02 12:24:38;;;;;;;7.00;3.60;;;17.40;92.40;;;;;;4992222;28;20046;-70
2021/10/02 12:27:10;;;;;;;8.95;4.03;;;17.30;92.90;;;;;;4991593;28;20030;-70
2021/10/02 12:29:40;;;;;;;6.93;3.90;;;17.10;92.70;;;;;;4981164;28;20038;-71
2021/10/02 12:32:09;;;;;;;6.97;4.43;;;17.00;93.00;;;;;;4998430;28;20597;-70
2021/10/02 12:34:40;;;;;;;7.50;4.25;;;17.00;93.40;;;;;;4990823;28;20080;-71
2021/10/02 12:37:13;;;;;;;6.60;4.53;;;16.90;93.90;;;;;;4989657;28;20048;-71
2021/10/02 12:39:43;;;;;;;4.72;3.90;;;17.00;94.00;;;;;;4986211;28;20052;-75
2021/10/02 12:42:13;;;;;;;7.13;4.07;;;17.10;94.00;;;;;;4993048;28;20027;-70
2021/10/02 12:44:44;;;;;;;6.70;3.75;;;17.20;93.70;;;;;;4987711;28;20904;-67
2021/10/02 12:47:10;;;;;;;7.05;3.80;;;17.40;93.70;;;;;;4968460;28;20432;-67
2021/10/02 12:49:46;;;;;;;6.25;4.30;;;17.50;93.50;;;;;;4989829;28;20037;-67
2021/10/02 12:52:14;;;;;;;6.45;4.20;;;17.50;93.20;;;;;;4987434;28;20038;-67
2021/10/02 12:54:41;;;;;;;9.10;4.78;;;17.40;93.10;;;;;;4984491;28;20080;-67
2021/10/02 12:57:13;;;;;;;8.73;4.65;;;17.40;92.20;;;;;;4986082;28;20484;-67
2021/10/02 12:59:43;;;;;;;8.10;4.43;;;17.40;92.40;;;;;;4984369;28;20034;-67
2021/10/02 13:02:09;;;;;;;8.65;4.18;;;17.40;92.50;;;;;;4984673;28;20027;-67
2021/10/02 13:04:35;;;;;;;4.43;3.88;;;17.40;92.70;;;;;;4979465;28;20451;-67
2021/10/02 13:07:02;;;;;;;8.27;5.25;;;17.40;93.10;;;;;;4977957;28;20114;-67
2021/10/02 13:09:28;;;;;;;7.18;5.13;;;17.30;92.80;;;;;;4980013;28;20049;-67
2021/10/02 13:11:54;;;;;;;6.40;4.95;;;17.20;93.00;;;;;;4982669;28;20101;-67
2021/10/02 13:14:34;;;;;;;6.55;4.55;;;17.20;93.00;;;;;;4979699;28;20037;-70
2021/10/02 13:17:05;;;;;;;5.63;4.23;;;17.10;92.90;;;;;;4979995;28;20018;-70
2021/10/02 13:19:33;;;;;;;7.47;4.97;;;17.00;93.00;;;;;;4985165;28;20046;-70
2021/10/02 13:22:18;;;;;;;5.82;4.15;;;17.00;92.90;;;;;;4984864;28;20038;-70
2021/10/02 13:25:10;;;;;;;8.88;4.85;;;17.00;93.00;;;;;;4980379;28;20157;-70
2021/10/02 13:27:43;;;;;;;6.53;4.43;;;17.10;92.40;;;;;;4978776;28;20034;-72
2021/10/02 13:30:09;;;;;;;6.95;3.92;;;17.10;92.30;;;;;;4984405;28;20049;-70
2021/10/02 13:32:35;;;;;;;6.70;4.07;;;17.10;92.40;;;;;;4982878;28;20034;-70
2021/10/02 13:35:07;;;;;;;5.38;3.85;;;17.10;92.40;;;;;;4977207;28;20526;-70
2021/10/02 13:37:33;;;;;;;4.95;3.55;;;17.10;92.70;;;;;;4987860;28;20030;-69
2021/10/02 13:40:04;;;;;;;6.53;3.92;;;17.10;92.50;;;;;;4982529;28;20022;-72
2021/10/02 13:42:30;;;;;;;7.18;3.63;;;17.10;92.70;;;;;;4976304;28;20501;-70
2021/10/02 13:44:57;;;;;;;4.97;3.60;;;17.20;92.50;;;;;;4982125;28;20042;-72
2021/10/02 13:47:25;;;;;;;5.38;3.30;;;17.10;92.50;;;;;;4966321;28;20026;-70